createdAt,value
2022-09-11T00:01:01.550Z,8.80
2022-09-11T00:01:35.329Z,9.60
2022-09-11T00:02:22.535Z,8.85
2022-09-11T00:03:07.002Z,8.40
2022-09-11T00:03:39.903Z,8.33
2022-09-11T00:04:07.585Z,9.23
2022-09-11T00:06:12.026Z,8.85
2022-09-11T00:08:18.641Z,9.02
2022-09-11T00:10:43.313Z,8.50
2022-09-11T00:12:36.502Z,9.23
2022-09-11T00:13:54.537Z,8.75
2022-09-11T00:15:13.704Z,8.82
2022-09-11T00:16:35.211Z,9.02
2022-09-11T00:17:11.987Z,8.65
2022-09-11T00:17:34.059Z,9.50
2022-09-11T00:21:38.348Z,9.07
2022-09-11T00:22:48.822Z,9.07
2022-09-11T00:26:41.724Z,9.05
2022-09-11T00:27:12.591Z,8.70
2022-09-11T00:29:07.059Z,8.88
2022-09-11T00:31:12.715Z,9.85
2022-09-11T00:33:00.677Z,8.80
2022-09-11T00:33:46.478Z,9.15
2022-09-11T00:37:28.349Z,9.10
2022-09-11T00:37:53.762Z,8.63
2022-09-11T00:38:19.165Z,8.70
2022-09-11T00:41:25.680Z,9.10
2022-09-11T00:42:35.342Z,8.80
2022-09-11T00:43:18.848Z,9.10
2022-09-11T00:44:19.828Z,9.40
2022-09-11T00:45:24.148Z,8.82
2022-09-11T00:46:08.002Z,9.10
2022-09-11T00:46:34.528Z,9.30
2022-09-11T00:48:04.269Z,8.25
2022-09-11T00:49:03.122Z,9.00
2022-09-11T00:51:56.087Z,8.65
2022-09-11T00:53:34.743Z,8.48
2022-09-11T00:54:56.677Z,8.57
2022-09-11T00:55:23.236Z,8.73
2022-09-11T00:56:29.845Z,8.75
2022-09-11T00:58:02.096Z,8.82
2022-09-11T00:58:56.503Z,8.50
2022-09-11T00:59:21.394Z,8.77
2022-09-11T01:02:27.634Z,9.25
2022-09-11T01:03:05.838Z,9.57
2022-09-11T01:03:36.952Z,9.52
2022-09-11T01:04:26.482Z,9.90
2022-09-11T01:05:03.124Z,10.40
2022-09-11T01:05:28.038Z,10.45
2022-09-11T01:06:52.870Z,10.68
2022-09-11T01:07:21.662Z,10.95
2022-09-11T01:07:59.024Z,10.68
2022-09-11T01:08:34.320Z,11.30
2022-09-11T01:09:08.687Z,10.57
2022-09-11T01:11:29.120Z,10.80
2022-09-11T01:12:38.093Z,10.93
2022-09-11T01:13:28.166Z,11.03
2022-09-11T01:14:51.672Z,11.07
2022-09-11T01:15:42.846Z,11.32
2022-09-11T01:16:38.586Z,11.52
2022-09-11T01:17:39.888Z,11.40
2022-09-11T01:18:37.824Z,11.65
2022-09-11T01:19:35.022Z,11.50
2022-09-11T01:19:56.808Z,11.52
2022-09-11T01:20:28.116Z,11.60
2022-09-11T01:21:48.762Z,11.77
2022-09-11T01:22:31.418Z,11.77
2022-09-11T01:23:25.312Z,12.25
2022-09-11T01:24:08.578Z,12.82
2022-09-11T01:25:07.903Z,13.30
2022-09-11T01:26:08.947Z,12.32
2022-09-11T01:26:54.098Z,13.25
2022-09-11T01:27:38.780Z,13.27
2022-09-11T01:29:29.801Z,14.50
2022-09-11T01:30:14.753Z,14.60
2022-09-11T01:32:47.646Z,14.93
2022-09-11T01:33:53.398Z,15.43
2022-09-11T01:34:53.092Z,15.00
2022-09-11T01:36:20.207Z,16.55
2022-09-11T02:03:25.963Z,19.77
2022-09-11T02:04:32.312Z,20.17
2022-09-11T02:08:09.700Z,19.77
2022-09-11T02:08:51.694Z,19.77
2022-09-11T02:09:24.395Z,19.83
2022-09-11T02:09:59.701Z,20.02
2022-09-11T02:10:30.865Z,19.80
2022-09-11T02:11:03.212Z,20.05
2022-09-11T02:12:09.377Z,19.73
2022-09-11T02:12:46.149Z,19.65
2022-09-11T02:13:15.798Z,19.65
2022-09-11T02:13:48.814Z,20.17
2022-09-11T02:14:21.395Z,19.45
2022-09-11T02:14:56.650Z,18.83
2022-09-11T02:15:19.448Z,18.85
2022-09-11T02:15:49.107Z,18.52
2022-09-11T02:19:06.322Z,20.92
2022-09-11T02:19:39.350Z,19.27
2022-09-11T02:20:01.647Z,20.30
2022-09-11T02:21:12.845Z,20.25
2022-09-11T02:21:53.755Z,18.92
2022-09-11T02:22:16.168Z,19.15
2022-09-11T02:22:41.096Z,18.67
2022-09-11T02:23:14.465Z,19.35
2022-09-11T02:23:36.921Z,19.55
2022-09-11T02:24:11.341Z,20.17
2022-09-11T02:24:34.521Z,19.20
2022-09-11T02:24:56.839Z,20.27
2022-09-11T02:26:10.173Z,19.23
2022-09-11T02:26:41.118Z,19.88
2022-09-11T02:27:14.078Z,19.98
2022-09-11T02:27:45.978Z,19.88
2022-09-11T02:28:08.839Z,19.60
2022-09-11T02:28:31.061Z,19.35
2022-09-11T02:29:45.479Z,18.35
2022-09-11T02:30:13.742Z,19.00
2022-09-11T02:30:54.256Z,18.83
2022-09-11T02:31:21.798Z,19.58
2022-09-11T02:31:44.273Z,18.63
2022-09-11T02:32:07.410Z,18.85
2022-09-11T02:32:31.641Z,19.00
2022-09-11T02:34:46.248Z,19.15
2022-09-11T02:35:09.276Z,19.05
2022-09-11T02:35:43.686Z,18.63
2022-09-11T02:36:41.351Z,19.35
2022-09-11T02:38:01.388Z,18.92
2022-09-11T02:38:31.263Z,18.15
2022-09-11T02:39:23.482Z,18.50
2022-09-11T02:41:24.239Z,18.08
2022-09-11T02:42:19.765Z,18.48
2022-09-11T02:42:44.723Z,17.42
2022-09-11T02:44:24.135Z,18.38
2022-09-11T02:45:10.905Z,17.58
2022-09-11T02:45:49.719Z,18.33
2022-09-11T02:46:30.904Z,18.50
2022-09-11T02:46:55.588Z,17.92
2022-09-11T02:47:54.405Z,18.25
2022-09-11T02:48:24.120Z,17.65
2022-09-11T02:49:08.068Z,18.10
2022-09-11T02:51:32.419Z,17.48
2022-09-11T02:52:16.879Z,17.65
2022-09-11T02:53:13.071Z,18.95
2022-09-11T02:53:53.047Z,19.15
2022-09-11T02:55:02.245Z,19.52
2022-09-11T02:56:07.469Z,19.15
2022-09-11T02:56:41.210Z,20.10
2022-09-11T02:58:35.221Z,21.65
2022-09-11T02:59:08.845Z,20.00
2022-09-11T02:59:45.958Z,20.95
2022-09-11T03:00:21.150Z,20.85
2022-09-11T03:02:37.757Z,20.42
2022-09-11T03:03:00.164Z,20.35
2022-09-11T03:03:49.365Z,20.38
2022-09-11T03:04:13.329Z,20.88
2022-09-11T03:04:52.064Z,20.38
2022-09-11T03:05:26.887Z,19.90
2022-09-11T03:06:11.145Z,20.80
2022-09-11T03:06:32.992Z,21.40
2022-09-11T03:07:02.925Z,20.63
2022-09-11T03:07:48.150Z,20.92
2022-09-11T03:08:17.145Z,20.70
2022-09-11T03:08:38.996Z,21.60
2022-09-11T03:09:11.426Z,20.95
2022-09-11T03:09:35.327Z,20.30
2022-09-11T03:09:57.600Z,20.13
2022-09-11T03:10:19.932Z,20.80
2022-09-11T03:11:33.630Z,20.90
2022-09-11T03:11:58.213Z,20.70
2022-09-11T03:12:20.797Z,20.33
2022-09-11T03:31:16.700Z,15.93
2022-09-11T03:31:39.413Z,16.02
2022-09-11T03:32:01.565Z,15.98
2022-09-11T03:32:23.490Z,15.70
2022-09-11T03:32:48.783Z,16.42
2022-09-11T03:33:11.572Z,15.65
2022-09-11T03:33:33.644Z,16.00
2022-09-11T03:33:55.767Z,15.48
2022-09-11T03:34:18.065Z,16.00
2022-09-11T03:34:39.861Z,16.10
2022-09-11T03:35:03.325Z,15.25
2022-09-11T03:35:28.789Z,15.50
2022-09-11T03:35:50.636Z,15.55
2022-09-11T03:36:14.007Z,15.80
2022-09-11T03:36:36.471Z,15.00
2022-09-11T03:36:58.343Z,15.55
2022-09-11T03:37:22.616Z,15.88
2022-09-11T03:37:47.106Z,14.85
2022-09-11T03:38:09.088Z,15.73
2022-09-11T03:38:31.185Z,16.50
2022-09-11T03:38:53.444Z,15.35
2022-09-11T03:39:15.353Z,15.55
2022-09-11T03:39:37.652Z,15.60
2022-09-11T03:40:01.640Z,14.68
2022-09-11T03:40:26.692Z,15.27
2022-09-11T03:40:48.701Z,16.10
2022-09-11T03:41:10.872Z,16.23
2022-09-11T03:41:32.865Z,15.60
2022-09-11T03:41:58.427Z,15.00
2022-09-11T03:42:20.807Z,15.50
2022-09-11T03:42:43.001Z,15.95
2022-09-11T03:43:05.353Z,15.35
2022-09-11T03:43:27.500Z,16.13
2022-09-11T03:43:49.500Z,15.73
2022-09-11T03:44:12.952Z,15.73
2022-09-11T03:44:34.745Z,15.68
2022-09-11T03:44:56.690Z,15.13
2022-09-11T03:45:19.939Z,15.25
2022-09-11T03:45:41.904Z,15.70
2022-09-11T03:46:04.063Z,15.65
2022-09-11T03:46:25.953Z,16.52
2022-09-11T03:46:47.837Z,15.95
2022-09-11T03:47:09.950Z,15.10
2022-09-11T03:47:31.930Z,15.35
2022-09-11T03:47:54.692Z,15.45
2022-09-11T03:48:17.545Z,15.73
2022-09-11T03:48:39.376Z,15.48
2022-09-11T03:49:02.941Z,14.63
2022-09-11T03:49:25.089Z,14.90
2022-09-11T03:49:46.950Z,15.23
2022-09-11T03:50:10.551Z,15.27
2022-09-11T03:50:33.838Z,15.20
2022-09-11T03:50:59.008Z,15.13
2022-09-11T03:51:21.296Z,15.13
2022-09-11T03:51:43.172Z,15.60
2022-09-11T03:52:05.306Z,15.90
2022-09-11T03:52:27.238Z,15.57
2022-09-11T03:52:50.165Z,15.35
2022-09-11T03:53:12.754Z,15.68
2022-09-11T03:53:35.642Z,15.02
2022-09-11T03:54:02.860Z,15.70
2022-09-11T03:54:24.676Z,15.13
2022-09-11T03:54:49.156Z,16.23
2022-09-11T03:55:11.400Z,15.73
2022-09-11T03:55:33.623Z,15.77
2022-09-11T03:56:00.319Z,15.63
2022-09-11T03:56:22.121Z,15.35
2022-09-11T03:56:44.062Z,15.20
2022-09-11T03:57:07.657Z,15.60
2022-09-11T03:57:29.558Z,15.70
2022-09-11T03:57:52.512Z,15.80
2022-09-11T03:58:14.375Z,15.07
2022-09-11T03:58:37.180Z,15.75
2022-09-11T03:59:02.665Z,15.65
2022-09-11T03:59:25.233Z,14.82
2022-09-11T03:59:47.100Z,15.73
2022-09-11T04:00:10.517Z,16.27
2022-09-11T04:00:34.068Z,15.82
2022-09-11T04:00:57.306Z,16.17
2022-09-11T04:01:19.345Z,15.82
2022-09-11T04:01:41.442Z,15.27
2022-09-11T04:02:03.450Z,15.43
2022-09-11T04:02:25.413Z,15.43
2022-09-11T04:02:47.384Z,16.00
2022-09-11T04:03:10.288Z,15.50
2022-09-11T04:03:32.093Z,16.33
2022-09-11T04:03:54.636Z,16.10
2022-09-11T04:04:17.356Z,15.70
2022-09-11T04:04:39.262Z,15.88
2022-09-11T04:05:01.806Z,15.23
2022-09-11T04:05:26.711Z,15.35
2022-09-11T04:06:03.530Z,15.10
2022-09-11T04:06:25.327Z,15.48
2022-09-11T04:06:47.275Z,15.30
2022-09-11T04:07:09.122Z,15.15
2022-09-11T04:07:31.157Z,15.27
2022-09-11T04:07:55.310Z,15.13
2022-09-11T04:08:17.140Z,14.93
2022-09-11T04:08:41.308Z,15.20
2022-09-11T04:09:05.652Z,14.65
2022-09-11T04:09:27.756Z,14.63
2022-09-11T04:09:49.969Z,14.90
2022-09-11T04:10:14.541Z,14.95
2022-09-11T04:10:36.377Z,14.65
2022-09-11T04:11:06.041Z,14.60
2022-09-11T04:11:27.999Z,14.77
2022-09-11T04:11:50.961Z,15.00
2022-09-11T04:12:13.394Z,14.48
2022-09-11T04:12:35.678Z,13.60
2022-09-11T04:12:57.464Z,13.43
2022-09-11T04:13:20.922Z,13.15
2022-09-11T04:13:43.905Z,14.25
2022-09-11T04:14:07.145Z,13.27
2022-09-11T04:14:29.324Z,12.85
2022-09-11T04:14:51.337Z,12.23
2022-09-11T04:15:13.843Z,12.52
2022-09-11T04:15:35.786Z,12.65
2022-09-11T04:16:32.810Z,12.80
2022-09-11T04:16:54.925Z,12.23
2022-09-11T04:17:17.760Z,12.38
2022-09-11T04:17:39.896Z,12.23
2022-09-11T04:18:08.384Z,12.45
2022-09-11T04:18:35.259Z,12.20
2022-09-11T04:18:57.114Z,12.45
2022-09-11T04:19:21.211Z,12.27
2022-09-11T04:19:43.142Z,11.73
2022-09-11T04:20:06.096Z,11.90
2022-09-11T04:20:28.037Z,11.77
2022-09-11T04:20:50.726Z,11.73
2022-09-11T04:21:15.124Z,11.68
2022-09-11T04:21:37.088Z,10.85
2022-09-11T04:21:58.890Z,10.82
2022-09-11T04:22:20.823Z,11.30
2022-09-11T04:22:47.901Z,11.20
2022-09-11T04:23:09.784Z,11.20
2022-09-11T04:23:32.346Z,11.15
2022-09-11T04:23:56.661Z,10.80
2022-09-11T04:24:19.190Z,10.68
2022-09-11T04:24:41.129Z,10.93
2022-09-11T04:25:04.578Z,10.80
2022-09-11T04:25:26.475Z,10.68
2022-09-11T04:25:48.745Z,10.73
2022-09-11T04:26:19.377Z,11.18
2022-09-11T04:26:42.713Z,10.32
2022-09-11T04:27:07.466Z,10.50
2022-09-11T04:27:29.391Z,10.73
2022-09-11T04:27:51.363Z,10.90
2022-09-11T04:28:16.684Z,10.43
2022-09-11T04:28:42.035Z,10.68
2022-09-11T04:29:03.872Z,10.40
2022-09-11T04:29:26.417Z,10.52
2022-09-11T04:29:48.272Z,11.30
2022-09-11T04:30:10.814Z,10.98
2022-09-11T04:30:36.047Z,11.25
2022-09-11T04:31:03.885Z,10.80
2022-09-11T04:31:27.697Z,10.90
2022-09-11T04:31:49.637Z,11.27
2022-09-11T04:32:11.892Z,10.63
2022-09-11T04:32:34.403Z,10.60
2022-09-11T04:32:56.352Z,10.43
2022-09-11T04:33:18.237Z,10.88
2022-09-11T04:33:41.209Z,11.15
2022-09-11T04:34:03.119Z,11.73
2022-09-11T04:34:26.323Z,11.35
2022-09-11T04:34:48.541Z,10.77
2022-09-11T04:35:11.057Z,10.90
2022-09-11T04:35:36.761Z,10.80
2022-09-11T04:36:03.371Z,10.93
2022-09-11T04:36:30.208Z,11.05
2022-09-11T04:36:52.681Z,11.10
2022-09-11T04:37:15.706Z,11.07
2022-09-11T04:37:37.574Z,10.60
2022-09-11T04:37:59.504Z,10.93
2022-09-11T04:38:25.002Z,10.35
2022-09-11T04:38:48.553Z,11.20
2022-09-11T04:39:11.570Z,11.18
2022-09-11T04:39:34.312Z,10.98
2022-09-11T04:39:56.243Z,10.60
2022-09-11T04:40:18.130Z,11.27
2022-09-11T04:40:40.074Z,10.73
2022-09-11T04:41:04.035Z,11.00
2022-09-11T04:41:27.029Z,11.38
2022-09-11T04:41:49.416Z,11.40
2022-09-11T04:42:11.426Z,11.20
2022-09-11T04:42:33.338Z,11.15
2022-09-11T04:42:55.298Z,11.40
2022-09-11T04:43:17.837Z,11.43
2022-09-11T04:43:41.199Z,11.38
2022-09-11T04:44:05.490Z,11.05
2022-09-11T04:44:30.688Z,10.82
2022-09-11T04:44:52.605Z,11.45
2022-09-11T04:45:14.445Z,11.10
2022-09-11T04:45:36.744Z,10.60
2022-09-11T04:46:17.948Z,10.48
2022-09-11T04:46:40.993Z,10.25
2022-09-11T04:47:02.861Z,10.70
2022-09-11T04:47:24.721Z,11.32
2022-09-11T04:47:46.643Z,10.95
2022-09-11T04:48:08.969Z,10.40
2022-09-11T04:48:30.947Z,10.40
2022-09-11T04:49:02.040Z,10.40
2022-09-11T04:49:24.967Z,10.60
2022-09-11T04:49:49.783Z,11.10
2022-09-11T04:50:12.882Z,10.63
2022-09-11T04:50:34.865Z,10.82
2022-09-11T04:51:02.246Z,10.60
2022-09-11T04:51:32.864Z,9.80
2022-09-11T04:51:55.001Z,10.45
2022-09-11T04:52:17.168Z,10.65
2022-09-11T04:52:39.264Z,10.25
2022-09-11T04:53:01.058Z,10.32
2022-09-11T04:53:22.810Z,10.40
2022-09-11T04:53:44.706Z,10.27
2022-09-11T04:54:10.552Z,10.27
2022-09-11T04:54:37.266Z,10.20
2022-09-11T04:54:59.296Z,10.20
2022-09-11T04:55:22.271Z,10.10
2022-09-11T04:55:44.072Z,10.07
2022-09-11T04:56:08.426Z,10.00
2022-09-11T04:56:34.451Z,10.20
2022-09-11T04:56:58.163Z,10.55
2022-09-11T04:57:20.109Z,10.43
2022-09-11T04:57:41.921Z,10.10
2022-09-11T04:58:06.685Z,9.63
2022-09-11T04:58:31.467Z,9.20
2022-09-11T04:58:55.497Z,8.93
2022-09-11T04:59:20.184Z,9.27
2022-09-11T04:59:42.026Z,9.53
2022-09-11T05:00:06.058Z,9.25
2022-09-11T05:00:28.264Z,9.00
2022-09-11T05:00:50.519Z,9.55
2022-09-11T05:01:16.925Z,9.95
2022-09-11T05:01:39.712Z,10.02
2022-09-11T05:02:02.636Z,9.85
2022-09-11T05:02:24.819Z,9.82
2022-09-11T05:02:47.714Z,9.50
2022-09-11T05:03:09.576Z,9.48
2022-09-11T05:03:33.315Z,9.02
2022-09-11T05:03:56.299Z,8.75
2022-09-11T05:04:25.761Z,9.40
2022-09-11T05:04:49.810Z,9.20
2022-09-11T05:05:12.503Z,9.32
2022-09-11T05:05:34.910Z,9.65
2022-09-11T05:05:59.078Z,9.73
2022-09-11T05:06:20.916Z,9.38
2022-09-11T05:06:48.269Z,9.40
2022-09-11T05:07:14.476Z,9.48
2022-09-11T05:07:36.854Z,9.52
2022-09-11T05:08:01.112Z,8.80
2022-09-11T05:08:26.720Z,9.13
2022-09-11T05:08:49.164Z,9.20
2022-09-11T05:09:12.513Z,9.45
2022-09-11T05:09:34.559Z,9.07
2022-09-11T05:09:59.621Z,9.00
2022-09-11T05:10:22.389Z,9.27
2022-09-11T05:10:44.550Z,9.48
2022-09-11T05:11:06.915Z,9.30
2022-09-11T05:11:30.188Z,8.90
2022-09-11T05:11:52.084Z,8.60
2022-09-11T05:12:14.054Z,8.73
2022-09-11T05:12:35.938Z,8.60
2022-09-11T05:12:57.865Z,8.52
2022-09-11T05:13:20.130Z,8.88
2022-09-11T05:13:44.037Z,9.10
2022-09-11T05:14:06.456Z,9.35
2022-09-11T05:14:29.381Z,9.45
2022-09-11T05:14:51.374Z,8.93
2022-09-11T05:15:14.399Z,8.02
2022-09-11T05:15:36.278Z,8.27
2022-09-11T05:16:05.545Z,8.70
2022-09-11T05:16:28.937Z,8.52
2022-09-11T05:16:53.721Z,8.80
2022-09-11T05:17:15.705Z,9.15
2022-09-11T05:17:39.555Z,8.80
2022-09-11T05:18:01.512Z,8.40
2022-09-11T05:18:23.417Z,8.45
2022-09-11T05:18:53.500Z,8.27
2022-09-11T05:19:15.394Z,8.60
2022-09-11T05:19:38.653Z,8.80
2022-09-11T05:20:00.880Z,8.52
2022-09-11T05:20:25.299Z,8.23
2022-09-11T05:20:47.182Z,8.18
2022-09-11T05:21:14.211Z,8.50
2022-09-11T05:21:36.679Z,8.57
2022-09-11T05:21:58.603Z,8.43
2022-09-11T05:22:20.524Z,8.75
2022-09-11T05:22:42.411Z,8.32
2022-09-11T05:23:07.196Z,8.80
2022-09-11T05:23:30.282Z,8.43
2022-09-11T05:23:55.966Z,8.70
2022-09-11T05:24:18.081Z,8.30
2022-09-11T05:24:40.740Z,8.20
2022-09-11T05:25:02.688Z,8.20
2022-09-11T05:25:27.626Z,8.32
2022-09-11T05:25:50.268Z,8.60
2022-09-11T05:26:17.983Z,7.97
2022-09-11T05:26:39.817Z,8.05
2022-09-11T05:27:01.779Z,7.47
2022-09-11T05:27:23.695Z,7.50
2022-09-11T05:27:45.496Z,8.00
2022-09-11T05:28:08.375Z,8.35
2022-09-11T05:28:32.719Z,8.00
2022-09-11T05:28:57.313Z,7.93
2022-09-11T05:29:19.706Z,8.10
2022-09-11T05:29:46.279Z,8.02
2022-09-11T05:30:08.792Z,8.02
2022-09-11T05:30:30.710Z,8.23
2022-09-11T05:30:57.276Z,7.93
2022-09-11T05:31:19.285Z,7.68
2022-09-11T05:31:41.497Z,8.10
2022-09-11T05:32:03.760Z,7.97
2022-09-11T05:32:25.676Z,7.57
2022-09-11T05:32:48.223Z,7.82
2022-09-11T05:33:10.259Z,8.23
2022-09-11T05:33:32.126Z,7.82
2022-09-11T05:33:59.264Z,7.43
2022-09-11T05:34:22.458Z,7.78
2022-09-11T05:34:44.315Z,7.88
2022-09-11T05:35:07.264Z,7.60
2022-09-11T05:35:32.346Z,7.63
2022-09-11T05:35:55.428Z,7.20
2022-09-11T05:36:18.021Z,7.05
2022-09-11T05:36:44.338Z,7.00
2022-09-11T05:37:06.270Z,7.35
2022-09-11T05:37:29.812Z,7.18
2022-09-11T05:37:52.316Z,7.25
2022-09-11T05:38:14.214Z,7.07
2022-09-11T05:38:39.287Z,6.95
2022-09-11T05:39:01.659Z,7.32
2022-09-11T05:39:27.359Z,6.82
2022-09-11T05:39:49.223Z,6.70
2022-09-11T05:40:12.784Z,6.80
2022-09-11T05:40:34.684Z,7.20
2022-09-11T05:40:57.143Z,7.07
2022-09-11T05:41:20.150Z,7.00
2022-09-11T05:41:42.272Z,6.80
2022-09-11T05:42:04.684Z,6.97
2022-09-11T05:42:28.834Z,6.55
2022-09-11T05:42:58.494Z,7.00
2022-09-11T05:43:20.853Z,6.93
2022-09-11T05:43:43.601Z,7.18
2022-09-11T05:44:08.775Z,7.07
2022-09-11T05:44:32.317Z,6.80
2022-09-11T05:44:54.821Z,6.90
2022-09-11T05:45:22.157Z,6.72
2022-09-11T05:45:46.116Z,6.85
2022-09-11T05:46:11.860Z,6.60
2022-09-11T05:46:34.865Z,6.70
2022-09-11T05:46:57.202Z,7.35
2022-09-11T05:47:21.421Z,6.68
2022-09-11T05:47:43.264Z,6.85
2022-09-11T05:48:08.836Z,6.78
2022-09-11T05:48:34.752Z,6.45
2022-09-11T05:48:58.844Z,6.32
2022-09-11T05:49:21.958Z,6.45
2022-09-11T05:49:43.832Z,6.45
2022-09-11T05:50:06.297Z,5.80
2022-09-11T05:50:28.288Z,6.13
2022-09-11T05:50:59.299Z,6.28
2022-09-11T05:51:22.562Z,6.38
2022-09-11T05:51:44.638Z,6.30
2022-09-11T05:52:06.621Z,6.10
2022-09-11T05:52:30.665Z,5.68
2022-09-11T05:52:53.532Z,5.93
2022-09-11T05:53:15.549Z,6.03
2022-09-11T05:53:38.134Z,5.90
2022-09-11T05:54:00.273Z,6.28
2022-09-11T05:54:22.792Z,6.32
2022-09-11T05:54:44.695Z,6.05
2022-09-11T05:55:07.127Z,6.22
2022-09-11T05:55:29.132Z,5.90
2022-09-11T05:55:55.095Z,6.03
2022-09-11T05:56:23.139Z,6.10
2022-09-11T05:56:45.417Z,5.97
2022-09-11T05:57:08.037Z,6.05
2022-09-11T05:57:30.065Z,5.90
2022-09-11T05:57:58.339Z,6.70
2022-09-11T05:58:21.782Z,6.50
2022-09-11T05:58:44.824Z,6.07
2022-09-11T05:59:14.312Z,6.03
2022-09-11T05:59:36.729Z,6.60
2022-09-11T05:59:58.832Z,6.63
2022-09-11T06:00:21.621Z,6.18
2022-09-11T06:00:46.873Z,5.88
2022-09-11T06:01:12.306Z,6.60
2022-09-11T06:01:34.361Z,6.35
2022-09-11T06:01:56.865Z,6.50
2022-09-11T06:02:18.968Z,6.57
2022-09-11T06:02:40.818Z,6.30
2022-09-11T06:03:03.353Z,6.70
2022-09-11T06:03:26.581Z,6.50
2022-09-11T06:03:49.982Z,6.28
2022-09-11T06:04:12.837Z,6.53
2022-09-11T06:04:34.631Z,6.10
2022-09-11T06:04:56.918Z,6.53
2022-09-11T06:05:19.424Z,6.80
2022-09-11T06:05:42.139Z,6.75
2022-09-11T06:06:06.186Z,5.93
2022-09-11T06:06:29.473Z,5.90
2022-09-11T06:06:51.491Z,6.00
2022-09-11T06:07:13.391Z,6.38
2022-09-11T06:07:35.462Z,6.15
2022-09-11T06:07:58.159Z,6.40
2022-09-11T06:08:22.838Z,6.10
2022-09-11T06:08:47.646Z,6.40
2022-09-11T06:09:09.714Z,5.90
2022-09-11T06:09:31.615Z,5.45
2022-09-11T06:09:53.935Z,5.90
2022-09-11T06:10:16.222Z,5.80
2022-09-11T06:10:48.894Z,5.80
2022-09-11T06:11:13.263Z,5.45
2022-09-11T06:11:36.376Z,5.00
2022-09-11T06:11:59.128Z,5.88
2022-09-11T06:12:21.120Z,5.10
2022-09-11T06:12:43.083Z,5.30
2022-09-11T06:13:05.556Z,5.15
2022-09-11T06:13:36.005Z,4.88
2022-09-11T06:13:57.881Z,4.68
2022-09-11T06:14:24.568Z,4.43
2022-09-11T06:14:48.425Z,4.47
2022-09-11T06:15:36.284Z,4.93
2022-09-11T06:15:58.498Z,5.00
2022-09-11T06:16:23.095Z,4.60
2022-09-11T06:16:45.212Z,4.60
2022-09-11T06:17:07.261Z,4.70
2022-09-11T06:17:29.267Z,4.53
2022-09-11T06:17:53.668Z,4.43
2022-09-11T06:18:19.112Z,4.70
2022-09-11T06:18:43.260Z,4.80
2022-09-11T06:19:05.730Z,4.32
2022-09-11T06:19:27.785Z,4.20
2022-09-11T06:19:49.802Z,4.28
2022-09-11T06:20:12.514Z,4.35
2022-09-11T06:20:34.485Z,4.32
2022-09-11T06:21:01.478Z,4.45
2022-09-11T06:21:27.279Z,4.40
2022-09-11T06:21:53.034Z,4.40
2022-09-11T06:22:15.004Z,4.57
2022-09-11T06:22:37.730Z,4.72
2022-09-11T06:23:00.972Z,4.40
2022-09-11T06:23:23.068Z,4.22
2022-09-11T06:23:45.883Z,4.30
2022-09-11T06:24:08.015Z,4.50
2022-09-11T06:24:29.959Z,4.28
2022-09-11T06:24:51.958Z,4.45
2022-09-11T06:25:20.639Z,4.22
2022-09-11T06:25:42.525Z,4.80
2022-09-11T06:26:06.554Z,4.47
2022-09-11T06:27:26.051Z,4.47
2022-09-11T06:27:47.845Z,4.55
2022-09-11T06:28:09.835Z,4.05
2022-09-11T06:28:33.114Z,4.20
2022-09-11T06:28:56.456Z,4.20
2022-09-11T06:29:19.797Z,4.47
2022-09-11T06:30:22.881Z,4.40
2022-09-11T06:30:48.484Z,4.50
2022-09-11T06:31:13.482Z,4.60
2022-09-11T06:31:35.336Z,4.20
2022-09-11T06:31:57.025Z,4.57
2022-09-11T06:32:19.879Z,4.45
2022-09-11T06:32:41.639Z,4.50
2022-09-11T06:33:03.668Z,4.40
2022-09-11T06:33:25.381Z,4.20
2022-09-11T06:33:47.947Z,4.43
2022-09-11T06:34:09.691Z,4.15
2022-09-11T06:34:31.879Z,4.20
2022-09-11T06:34:54.472Z,4.40
2022-09-11T06:35:16.272Z,4.28
2022-09-11T06:35:37.983Z,4.57
2022-09-11T06:36:01.413Z,4.63
2022-09-11T06:36:32.663Z,4.35
2022-09-11T06:36:54.732Z,4.28
2022-09-11T06:37:16.527Z,4.50
2022-09-11T06:37:38.847Z,4.72
2022-09-11T06:38:01.050Z,4.40
2022-09-11T06:38:24.124Z,4.47
2022-09-11T06:38:46.567Z,4.65
2022-09-11T06:39:08.599Z,4.57
2022-09-11T06:39:31.938Z,4.65
2022-09-11T06:39:53.723Z,4.70
2022-09-11T06:40:16.011Z,4.80
2022-09-11T06:40:38.286Z,4.78
2022-09-11T06:41:04.567Z,4.57
2022-09-11T06:41:27.649Z,4.40
2022-09-11T06:41:50.254Z,4.40
2022-09-11T06:42:11.999Z,4.50
2022-09-11T06:42:34.258Z,4.40
2022-09-11T06:42:56.173Z,4.45
2022-09-11T06:43:18.890Z,4.25
2022-09-11T06:43:42.694Z,4.53
2022-09-11T06:44:05.247Z,4.40
2022-09-11T06:44:27.373Z,4.10
2022-09-11T06:44:51.389Z,4.47
2022-09-11T06:45:13.282Z,4.68
2022-09-11T06:45:36.266Z,4.60
2022-09-11T06:46:13.157Z,4.70
2022-09-11T06:46:35.443Z,4.70
2022-09-11T06:46:57.982Z,4.50
2022-09-11T06:47:20.804Z,4.85
2022-09-11T06:47:42.825Z,4.72
2022-09-11T06:48:04.547Z,4.72
2022-09-11T06:48:26.496Z,5.03
2022-09-11T06:48:50.259Z,4.45
2022-09-11T06:49:16.522Z,4.50
2022-09-11T06:49:38.518Z,4.40
2022-09-11T06:50:01.369Z,4.50
2022-09-11T06:50:23.496Z,4.55
2022-09-11T06:50:46.341Z,4.70
2022-09-11T06:51:35.687Z,4.88
2022-09-11T06:51:58.502Z,4.53
2022-09-11T06:52:20.397Z,4.60
2022-09-11T06:52:44.736Z,4.47
2022-09-11T06:53:12.580Z,4.47
2022-09-11T06:53:36.886Z,4.32
2022-09-11T06:54:02.457Z,4.38
2022-09-11T06:54:24.165Z,4.25
2022-09-11T06:54:46.218Z,4.35
2022-09-11T06:55:13.714Z,4.03
2022-09-11T06:55:35.896Z,4.25
2022-09-11T06:56:02.262Z,4.00
2022-09-11T06:56:24.526Z,4.05
2022-09-11T06:56:46.486Z,3.95
2022-09-11T06:57:08.436Z,4.45
2022-09-11T06:57:30.479Z,4.25
2022-09-11T06:57:53.074Z,3.88
2022-09-11T06:58:15.366Z,4.00
2022-09-11T06:58:37.299Z,3.80
2022-09-11T06:58:59.450Z,4.03
2022-09-11T06:59:23.842Z,4.13
2022-09-11T06:59:45.957Z,3.72
2022-09-11T07:00:08.992Z,3.60
2022-09-11T07:00:31.310Z,3.80
2022-09-11T07:00:53.393Z,3.92
2022-09-11T07:01:17.357Z,4.00
2022-09-11T07:01:42.293Z,4.00
2022-09-11T07:02:04.361Z,4.00
2022-09-11T07:02:26.377Z,3.88
2022-09-11T07:02:48.098Z,3.90
2022-09-11T07:03:11.490Z,3.70
2022-09-11T07:03:33.779Z,4.05
2022-09-11T07:03:56.313Z,3.88
2022-09-11T07:04:18.349Z,3.45
2022-09-11T07:04:40.044Z,3.20
2022-09-11T07:05:02.112Z,3.33
2022-09-11T07:05:24.668Z,3.30
2022-09-11T07:05:50.130Z,3.22
2022-09-11T07:06:16.662Z,3.33
2022-09-11T07:06:39.220Z,3.20
2022-09-11T07:07:01.004Z,3.35
2022-09-11T07:07:22.945Z,3.35
2022-09-11T07:07:44.973Z,3.15
2022-09-11T07:08:06.980Z,2.95
2022-09-11T07:08:35.648Z,3.00
2022-09-11T07:09:03.115Z,3.10
2022-09-11T07:09:24.873Z,2.72
2022-09-11T07:09:46.615Z,2.80
2022-09-11T07:10:09.417Z,2.67
2022-09-11T07:10:33.351Z,2.50
2022-09-11T07:10:55.226Z,2.60
2022-09-11T07:11:17.745Z,2.83
2022-09-11T07:11:43.747Z,2.80
2022-09-11T07:12:07.119Z,2.63
2022-09-11T07:12:28.886Z,2.53
2022-09-11T07:12:55.733Z,2.50
2022-09-11T07:13:17.614Z,2.55
2022-09-11T07:13:40.193Z,2.40
2022-09-11T07:14:06.460Z,2.60
2022-09-11T07:14:45.209Z,2.50
2022-09-11T07:15:08.082Z,2.38
2022-09-11T07:16:11.649Z,2.20
2022-09-11T07:17:14.963Z,2.03
2022-09-11T07:17:35.103Z,2.20
2022-09-11T07:17:57.931Z,1.90
2022-09-11T07:18:20.033Z,1.85
2022-09-11T07:18:43.985Z,2.10
2022-09-11T07:19:07.939Z,2.00
2022-09-11T07:19:29.941Z,2.15
2022-09-11T07:19:52.649Z,2.08
2022-09-11T07:20:15.066Z,2.00
2022-09-11T07:20:39.426Z,2.22
2022-09-11T07:21:04.356Z,2.08
2022-09-11T07:21:27.826Z,1.85
2022-09-11T07:21:49.680Z,1.80
2022-09-11T07:22:11.376Z,1.80
2022-09-11T07:22:35.453Z,1.98
2022-09-11T07:23:00.167Z,1.90
2022-09-11T07:23:22.013Z,2.00
2022-09-11T07:24:16.705Z,2.00
2022-09-11T07:24:38.789Z,2.05
2022-09-11T07:25:02.803Z,1.80
2022-09-11T07:25:27.662Z,2.03
2022-09-11T07:25:49.844Z,1.90
2022-09-11T07:26:12.928Z,2.05
2022-09-11T07:26:36.887Z,2.05
2022-09-11T07:26:58.825Z,2.10
2022-09-11T07:27:21.040Z,1.98
2022-09-11T07:27:43.279Z,1.80
2022-09-11T07:28:05.192Z,2.00
2022-09-11T07:28:26.976Z,2.00
2022-09-11T07:28:52.480Z,2.23
2022-09-11T07:29:14.299Z,2.15
2022-09-11T07:29:36.257Z,2.03
2022-09-11T07:29:58.365Z,2.13
2022-09-11T07:30:20.131Z,2.40
2022-09-11T07:30:42.068Z,2.05
2022-09-11T07:31:20.834Z,2.10
2022-09-11T07:31:42.980Z,1.80
2022-09-11T07:32:07.511Z,2.20
2022-09-11T07:32:31.238Z,2.20
2022-09-11T07:32:53.266Z,2.15
2022-09-11T07:33:15.900Z,2.22
2022-09-11T07:33:43.284Z,2.05
2022-09-11T07:34:08.366Z,2.05
2022-09-11T07:34:30.093Z,2.05
2022-09-11T07:34:52.041Z,2.10
2022-09-11T07:35:16.717Z,2.15
2022-09-11T07:35:39.059Z,2.28
2022-09-11T07:36:01.014Z,2.45
2022-09-11T07:36:28.212Z,2.20
2022-09-11T07:36:51.865Z,1.98